createdAt,value
2018-09-11T00:00:29.190Z,87.11
2018-09-11T00:02:57.460Z,85.94
2018-09-11T00:05:26.409Z,86.12
2018-09-11T00:07:54.838Z,86.21
2018-09-11T00:10:24.181Z,86.06
2018-09-11T00:12:52.689Z,85.83
2018-09-11T00:15:20.968Z,86.57
2018-09-11T00:17:49.641Z,86.71
2018-09-11T00:20:17.948Z,86.87
2018-09-11T00:22:47.038Z,88.66
2018-09-11T00:25:15.560Z,87.01
2018-09-11T00:27:43.862Z,86.12
2018-09-11T00:30:12.162Z,86.28
2018-09-11T00:32:40.572Z,87.73
2018-09-11T00:35:09.717Z,86.46
2018-09-11T00:37:37.965Z,85.97
2018-09-11T00:40:07.096Z,85.96
2018-09-11T00:42:35.418Z,85.02
2018-09-11T00:45:03.855Z,84.09
2018-09-11T00:47:33.081Z,84.47
2018-09-11T00:50:01.738Z,84.87
2018-09-11T00:52:30.318Z,83.82
2018-09-11T00:54:58.752Z,82.44
2018-09-11T00:57:27.161Z,83.36
2018-09-11T00:59:55.837Z,84.80
2018-09-11T01:02:24.269Z,84.72
2018-09-11T01:04:52.776Z,83.25
2018-09-11T01:07:22.196Z,84.73
2018-09-11T01:09:52.291Z,84.85
2018-09-11T01:12:20.652Z,84.76
2018-09-11T01:14:49.672Z,84.99
2018-09-11T01:17:18.229Z,84.85
2018-09-11T01:19:46.558Z,85.76
2018-09-11T01:22:14.927Z,85.83
2018-09-11T01:24:43.251Z,85.73
2018-09-11T01:27:11.554Z,85.70
2018-09-11T01:29:40.973Z,85.76
2018-09-11T01:32:09.652Z,85.91
2018-09-11T01:34:37.976Z,89.26
2018-09-11T01:37:06.485Z,89.24
2018-09-11T01:39:34.886Z,87.90
2018-09-11T01:42:03.189Z,87.41
2018-09-11T01:44:31.461Z,91.48
2018-09-11T01:46:59.937Z,89.94
2018-09-11T01:49:28.401Z,94.48
2018-09-11T01:51:56.701Z,90.83
2018-09-11T01:54:24.965Z,90.27
2018-09-11T01:56:53.250Z,90.02
2018-09-11T01:59:21.646Z,90.81
2018-09-11T02:01:49.941Z,89.98
2018-09-11T02:04:19.592Z,92.86
2018-09-11T02:06:47.909Z,93.17
2018-09-11T02:09:16.238Z,94.21
2018-09-11T02:11:44.538Z,93.38
2018-09-11T02:14:12.787Z,92.35
2018-09-11T02:16:41.214Z,92.71
2018-09-11T02:19:09.543Z,92.13
2018-09-11T02:21:37.841Z,94.86
2018-09-11T02:24:06.100Z,92.43
2018-09-11T02:26:34.784Z,92.71
2018-09-11T02:29:03.045Z,92.98
2018-09-11T02:31:31.336Z,93.60
2018-09-11T02:33:59.605Z,92.14
2018-09-11T02:36:27.890Z,93.34
2018-09-11T02:38:56.149Z,93.05
2018-09-11T02:41:24.717Z,92.21
2018-09-11T02:43:53.295Z,90.05
2018-09-11T02:46:21.575Z,89.49
2018-09-11T02:48:50.225Z,92.56
2018-09-11T02:51:19.621Z,95.04
2018-09-11T02:53:47.904Z,93.14
2018-09-11T02:56:16.176Z,93.45
2018-09-11T02:58:44.451Z,93.74
2018-09-11T03:01:12.747Z,93.81
2018-09-11T03:03:41.057Z,92.46
2018-09-11T03:06:09.753Z,94.31
2018-09-11T03:08:38.026Z,93.11
2018-09-11T03:11:06.452Z,92.40
2018-09-11T03:13:34.720Z,91.99
2018-09-11T03:16:03.460Z,94.23
2018-09-11T03:18:32.040Z,93.67
2018-09-11T03:21:00.448Z,92.77
2018-09-11T03:23:28.726Z,92.70
2018-09-11T03:25:57.009Z,93.11
2018-09-11T03:28:25.481Z,95.41
2018-09-11T03:30:53.762Z,94.49
2018-09-11T03:33:22.064Z,93.27
2018-09-11T03:35:50.847Z,94.02
2018-09-11T03:38:20.228Z,95.25
2018-09-11T03:40:48.828Z,96.07
2018-09-11T03:43:17.079Z,94.52
2018-09-11T03:45:49.257Z,97.48
2018-09-11T03:48:19.421Z,97.41
2018-09-11T03:50:50.232Z,96.99
2018-09-11T03:53:25.757Z,97.28
2018-09-11T03:55:54.064Z,97.08
2018-09-11T03:58:22.317Z,97.11
2018-09-11T13:31:47.135Z,25.87
2018-09-11T13:37:14.521Z,24.54
2018-09-11T13:39:44.457Z,24.74
2018-09-11T13:42:13.519Z,25.30
2018-09-11T13:44:42.782Z,25.01
2018-09-11T13:47:11.595Z,22.83
2018-09-11T13:49:40.657Z,21.55
2018-09-11T13:52:09.985Z,21.69
2018-09-11T13:54:39.797Z,21.01
2018-09-11T13:57:08.600Z,20.50
2018-09-11T13:59:37.810Z,22.42
2018-09-11T14:02:06.416Z,22.66
2018-09-11T14:04:35.750Z,23.26
2018-09-11T14:07:05.438Z,21.45
2018-09-11T14:09:35.574Z,27.47
2018-09-11T14:12:04.709Z,29.90
2018-09-11T14:14:34.080Z,30.18
2018-09-11T14:17:04.495Z,31.36
2018-09-11T14:19:35.802Z,32.84
2018-09-11T14:22:07.085Z,32.03
2018-09-11T14:24:36.082Z,32.35
2018-09-11T14:27:06.163Z,33.60
2018-09-11T14:29:34.995Z,33.12
2018-09-11T14:32:04.868Z,34.43
2018-09-11T14:34:35.629Z,34.51
2018-09-11T14:37:14.013Z,35.13
2018-09-11T14:39:46.509Z,34.63
2018-09-11T14:42:18.326Z,35.32
2018-09-11T14:44:51.199Z,35.49
2018-09-11T14:47:21.189Z,35.62
2018-09-11T14:49:52.448Z,36.33
2018-09-11T14:52:21.387Z,35.71
2018-09-11T14:54:51.006Z,36.04
2018-09-11T14:57:20.154Z,35.50
2018-09-11T14:59:53.908Z,36.12
2018-09-11T15:02:25.225Z,36.74
2018-09-11T15:04:55.797Z,37.24
2018-09-11T15:07:26.162Z,36.44
2018-09-11T15:09:54.634Z,37.64
2018-09-11T15:12:23.294Z,36.47
2018-09-11T15:14:53.814Z,36.99
2018-09-11T15:17:31.027Z,37.13
2018-09-11T15:20:02.350Z,36.79
2018-09-11T15:22:30.803Z,37.15
2018-09-11T15:25:00.289Z,37.11
2018-09-11T15:27:30.351Z,38.14
2018-09-11T15:29:58.720Z,36.97
2018-09-11T15:32:28.658Z,36.94
2018-09-11T15:34:57.217Z,37.10
2018-09-11T15:37:31.964Z,38.20
2018-09-11T15:40:03.380Z,37.64
2018-09-11T15:42:32.772Z,37.35
2018-09-11T15:45:01.486Z,37.01
2018-09-11T15:47:32.695Z,36.30
2018-09-11T15:50:04.590Z,36.78
2018-09-11T15:52:33.246Z,36.81
2018-09-11T15:55:02.245Z,36.83
2018-09-11T15:57:30.659Z,36.43
2018-09-11T15:59:59.286Z,36.91
2018-09-11T16:02:30.246Z,36.01
2018-09-11T16:05:01.999Z,36.15
2018-09-11T16:07:32.957Z,36.62
2018-09-11T16:10:02.720Z,36.93
2018-09-11T16:12:34.348Z,36.17
2018-09-11T16:15:07.534Z,36.57
2018-09-11T16:17:36.093Z,37.12
2018-09-11T16:20:09.050Z,36.90
2018-09-11T16:22:38.907Z,37.39
2018-09-11T16:25:09.837Z,36.98
2018-09-11T16:27:41.306Z,36.72
2018-09-11T16:30:10.783Z,37.83
2018-09-11T16:32:39.226Z,38.71
2018-09-11T16:35:09.212Z,38.41
2018-09-11T16:37:43.553Z,38.71
2018-09-11T16:40:14.331Z,39.80
2018-09-11T16:42:43.878Z,39.60
2018-09-11T16:45:14.779Z,38.42
2018-09-11T16:47:49.401Z,38.97
2018-09-11T16:50:18.616Z,39.97
2018-09-11T16:52:49.180Z,39.43
2018-09-11T16:55:18.676Z,41.13
2018-09-11T16:57:48.157Z,41.04
2018-09-11T17:00:17.203Z,40.54
2018-09-11T17:02:46.756Z,40.81
2018-09-11T17:05:17.387Z,40.72
2018-09-11T17:07:47.284Z,41.79
2018-09-11T17:10:18.888Z,43.38
2018-09-11T17:12:51.871Z,42.87
2018-09-11T17:15:21.293Z,44.07
2018-09-11T17:17:50.701Z,45.63
2018-09-11T17:20:22.143Z,47.19
2018-09-11T17:22:53.722Z,47.75
2018-09-11T17:25:22.725Z,45.80
2018-09-11T17:27:55.114Z,46.75
2018-09-11T17:30:25.494Z,45.90
2018-09-11T17:32:56.717Z,46.34
2018-09-11T17:35:31.067Z,48.54
2018-09-11T17:38:03.154Z,45.30
2018-09-11T17:40:35.751Z,45.63
2018-09-11T17:43:04.970Z,47.36
2018-09-11T17:45:40.189Z,46.15
2018-09-11T17:48:10.303Z,48.38
2018-09-11T17:50:48.664Z,47.44
2018-09-11T17:53:23.375Z,48.87
2018-09-11T17:55:52.518Z,48.22
2018-09-11T17:58:24.405Z,54.72
2018-09-11T18:00:56.257Z,53.84
2018-09-11T18:03:29.115Z,50.61
2018-09-11T18:06:00.218Z,50.93
2018-09-11T18:08:29.907Z,52.53
2018-09-11T18:11:00.680Z,53.78
2018-09-11T18:13:29.298Z,53.28
2018-09-11T18:15:59.392Z,54.50
2018-09-11T18:18:29.395Z,53.03
2018-09-11T18:20:58.461Z,56.18
2018-09-11T18:23:27.737Z,54.47
2018-09-11T18:26:00.521Z,54.06
2018-09-11T18:28:31.785Z,52.61
2018-09-11T18:31:01.980Z,55.35
2018-09-11T18:33:31.232Z,54.96
2018-09-11T18:36:00.767Z,56.50
2018-09-11T18:38:37.181Z,53.62
2018-09-11T18:41:11.672Z,56.66
2018-09-11T18:43:41.590Z,57.24
2018-09-11T18:46:11.939Z,56.32
2018-09-11T18:48:41.947Z,56.70
2018-09-11T18:51:13.578Z,59.66
2018-09-11T18:53:43.712Z,59.12
2018-09-11T18:56:14.664Z,58.76
2018-09-11T18:58:50.667Z,58.64
2018-09-11T19:01:20.953Z,58.93
2018-09-11T19:03:50.989Z,61.30
2018-09-11T19:06:20.951Z,57.61
2018-09-11T19:08:57.769Z,55.70
2018-09-11T19:11:35.009Z,57.60
2018-09-11T19:14:05.714Z,56.86
2018-09-11T19:17:41.303Z,56.76
2018-09-11T19:20:27.400Z,55.08
2018-09-11T19:22:58.185Z,55.96
2018-09-11T19:25:30.653Z,54.30
2018-09-11T19:28:00.741Z,53.21
2018-09-11T19:30:33.681Z,53.84
2018-09-11T19:33:08.054Z,54.70
2018-09-11T19:35:38.424Z,56.36
2018-09-11T19:38:19.188Z,56.90
2018-09-11T19:40:51.300Z,55.59
2018-09-11T19:43:22.426Z,55.73
2018-09-11T19:45:52.023Z,59.89
2018-09-11T19:48:27.513Z,61.10
2018-09-11T19:51:00.089Z,55.89
2018-09-11T19:53:29.983Z,61.84
2018-09-11T19:56:02.089Z,63.23
2018-09-11T19:58:33.468Z,54.55
2018-09-11T20:01:02.075Z,57.52
2018-09-11T20:03:32.161Z,56.94
2018-09-11T20:06:02.033Z,58.19
2018-09-11T20:08:31.388Z,56.56
2018-09-11T20:12:02.985Z,63.22
2018-09-11T20:14:32.530Z,61.96
2018-09-11T20:17:03.270Z,57.88
2018-09-11T20:19:32.169Z,61.55
2018-09-11T20:22:00.781Z,59.16
2018-09-11T20:24:34.087Z,58.39
2018-09-11T20:27:07.359Z,59.59
2018-09-11T20:29:38.864Z,62.94
2018-09-11T20:32:07.642Z,62.86
2018-09-11T20:34:36.182Z,61.33
2018-09-11T20:37:07.749Z,58.18
2018-09-11T20:39:37.635Z,63.29
2018-09-11T20:42:07.577Z,61.67
2018-09-11T20:44:39.085Z,60.94
2018-09-11T20:47:08.650Z,59.43
2018-09-11T20:49:37.728Z,61.62
2018-09-11T20:52:09.692Z,64.40
2018-09-11T20:54:40.209Z,62.73
2018-09-11T20:57:08.741Z,61.26
2018-09-11T20:59:39.039Z,62.38
2018-09-11T21:02:07.726Z,61.47
2018-09-11T21:04:38.618Z,61.32
2018-09-11T21:07:09.235Z,59.93
2018-09-11T21:09:39.108Z,61.18
2018-09-11T21:12:10.603Z,63.52
2018-09-11T21:14:43.367Z,61.89
2018-09-11T21:17:12.118Z,62.42
2018-09-11T21:19:42.916Z,61.76
2018-09-11T21:22:14.074Z,60.48
2018-09-11T21:24:47.086Z,62.13
2018-09-11T21:27:16.697Z,63.86
2018-09-11T21:29:47.662Z,64.25
2018-09-11T21:32:17.654Z,64.87
2018-09-11T21:34:46.550Z,65.05
2018-09-11T21:37:17.806Z,63.80
2018-09-11T21:39:48.839Z,62.35
2018-09-11T21:42:21.099Z,67.01
2018-09-11T21:44:52.523Z,64.70
2018-09-11T21:47:23.484Z,68.05
2018-09-11T21:49:57.219Z,64.55
2018-09-11T21:52:27.525Z,66.35
2018-09-11T21:54:56.949Z,68.01
2018-09-11T21:57:27.040Z,66.89
2018-09-11T21:59:55.391Z,68.00
2018-09-11T22:02:25.105Z,67.32
2018-09-11T22:04:55.391Z,66.75
2018-09-11T22:07:25.154Z,67.51
2018-09-11T22:09:55.348Z,67.59
2018-09-11T22:12:24.337Z,66.25
2018-09-11T22:14:52.759Z,68.66
2018-09-11T22:17:22.139Z,71.63
2018-09-11T22:19:50.719Z,70.99
2018-09-11T22:22:19.838Z,70.19
2018-09-11T22:24:48.131Z,69.41
2018-09-11T22:27:17.193Z,72.82
2018-09-11T22:29:45.981Z,72.37
2018-09-11T22:32:14.365Z,71.86
2018-09-11T22:34:42.832Z,70.92
2018-09-11T22:37:11.593Z,73.30
2018-09-11T22:39:41.004Z,72.37
2018-09-11T22:42:11.116Z,69.57
2018-09-11T22:44:40.666Z,75.50
2018-09-11T22:47:09.258Z,72.91
2018-09-11T22:49:37.526Z,73.57
2018-09-11T22:52:06.908Z,72.35
2018-09-11T22:54:35.947Z,74.31
2018-09-11T22:57:04.320Z,76.51
2018-09-11T22:59:32.773Z,74.05
2018-09-11T23:02:01.071Z,75.97
2018-09-11T23:04:29.424Z,75.71
2018-09-11T23:07:01.066Z,74.06
2018-09-11T23:09:30.494Z,74.46
2018-09-11T23:11:58.929Z,77.73
2018-09-11T23:14:27.955Z,76.03
2018-09-11T23:16:56.644Z,78.87
2018-09-11T23:19:25.303Z,77.15
2018-09-11T23:21:54.870Z,76.48
2018-09-11T23:24:23.321Z,75.67
2018-09-11T23:26:51.608Z,77.14
2018-09-11T23:29:20.064Z,76.52
2018-09-11T23:31:49.141Z,76.99
2018-09-11T23:34:17.428Z,77.78
2018-09-11T23:36:45.924Z,77.85
2018-09-11T23:39:15.082Z,77.34
2018-09-11T23:41:44.726Z,78.49
2018-09-11T23:44:13.696Z,77.01
2018-09-11T23:46:41.986Z,77.79
2018-09-11T23:49:10.403Z,79.66
2018-09-11T23:51:38.908Z,81.96
2018-09-11T23:54:07.701Z,82.86
2018-09-11T23:56:36.469Z,82.74
2018-09-11T23:59:05.307Z,81.29
